createdAt,value
2023-05-05T00:01:41.333Z,3.38
2023-05-05T00:04:11.574Z,5.60
2023-05-05T00:06:41.806Z,2.50
2023-05-05T00:09:11.894Z,2.90
2023-05-05T00:11:41.987Z,2.78
2023-05-05T00:14:12.178Z,2.40
2023-05-05T00:16:42.575Z,3.70
2023-05-05T00:19:12.849Z,3.20
2023-05-05T00:21:43.028Z,2.53
2023-05-05T00:24:13.115Z,2.10
2023-05-05T00:26:43.241Z,5.45
2023-05-05T00:29:13.351Z,3.03
2023-05-05T00:31:43.568Z,4.13
2023-05-05T00:34:13.718Z,3.05
2023-05-05T00:36:43.989Z,1.63
2023-05-05T00:39:14.410Z,2.65
2023-05-05T00:41:44.612Z,4.93
2023-05-05T00:44:15.839Z,3.47
2023-05-05T00:46:46.158Z,4.50
2023-05-05T00:49:16.586Z,5.03
2023-05-05T00:51:46.825Z,3.25
2023-05-05T00:54:17.180Z,3.28
2023-05-05T00:56:48.312Z,4.20
2023-05-05T00:59:18.576Z,3.83
2023-05-05T01:01:48.763Z,3.45
2023-05-05T01:04:19.003Z,6.97
2023-05-05T01:07:12.518Z,2.83
2023-05-05T01:10:15.142Z,4.03
2023-05-05T01:13:03.882Z,6.30
2023-05-05T01:15:41.832Z,2.40
2023-05-05T01:18:14.118Z,3.35
2023-05-05T01:21:10.232Z,4.50
2023-05-05T01:24:05.117Z,3.75
2023-05-05T01:26:35.277Z,6.30
2023-05-05T01:29:11.110Z,3.45
2023-05-05T01:31:55.275Z,3.33
2023-05-05T01:34:34.728Z,5.40
2023-05-05T01:37:12.715Z,2.38
2023-05-05T01:39:45.743Z,3.05
2023-05-05T01:42:18.768Z,2.17
2023-05-05T01:44:50.053Z,3.63
2023-05-05T01:47:22.454Z,3.03
2023-05-05T01:49:52.993Z,2.97
2023-05-05T01:52:24.517Z,4.00
2023-05-05T01:54:56.793Z,3.10
2023-05-05T01:57:31.462Z,3.00
2023-05-05T02:00:04.759Z,2.65
2023-05-05T02:02:36.307Z,3.47
2023-05-05T02:05:07.432Z,4.97
2023-05-05T02:07:38.537Z,5.00
2023-05-05T02:10:10.670Z,2.55
2023-05-05T02:12:43.124Z,3.70
2023-05-05T02:15:15.326Z,3.63
2023-05-05T02:17:47.399Z,2.70
2023-05-05T02:20:19.331Z,3.30
2023-05-05T02:22:49.712Z,5.45
2023-05-05T02:25:20.433Z,3.13
2023-05-05T02:27:56.815Z,3.45
2023-05-05T02:30:29.168Z,2.80
2023-05-05T02:33:07.622Z,5.03
2023-05-05T02:35:42.342Z,3.22
2023-05-05T02:38:17.968Z,3.28
2023-05-05T02:40:51.000Z,2.92
2023-05-05T02:43:24.251Z,2.80
2023-05-05T02:45:54.534Z,2.70
2023-05-05T02:48:24.725Z,3.83
2023-05-05T02:50:54.868Z,4.45
2023-05-05T02:53:27.017Z,3.00
2023-05-05T02:56:16.865Z,3.78
2023-05-05T02:59:16.362Z,5.82
2023-05-05T03:01:54.931Z,6.97
2023-05-05T03:04:37.594Z,4.30
2023-05-05T03:07:14.508Z,2.78
2023-05-05T03:09:55.964Z,2.70
2023-05-05T03:12:30.638Z,4.25
2023-05-05T03:15:02.478Z,2.67
2023-05-05T03:17:34.000Z,3.25
2023-05-05T03:20:07.653Z,4.50
2023-05-05T03:22:38.060Z,4.13
2023-05-05T03:25:08.720Z,3.55
2023-05-05T03:27:38.841Z,4.25
2023-05-05T03:30:09.820Z,4.10
2023-05-05T03:32:40.309Z,2.67
2023-05-05T03:35:10.451Z,5.80
2023-05-05T03:37:40.678Z,4.60
2023-05-05T03:40:11.259Z,4.85
2023-05-05T03:42:41.977Z,5.20
2023-05-05T03:45:13.026Z,3.75
2023-05-05T03:47:43.410Z,3.72
2023-05-05T03:50:13.675Z,3.92
2023-05-05T03:52:43.844Z,3.67
2023-05-05T03:55:13.954Z,5.13
2023-05-05T03:57:46.100Z,3.55
2023-05-05T04:00:16.627Z,4.90
2023-05-05T04:02:46.864Z,3.65
2023-05-05T04:05:17.062Z,3.72
2023-05-05T04:07:47.212Z,4.07
2023-05-05T04:10:17.383Z,3.05
2023-05-05T04:12:47.442Z,2.80
2023-05-05T04:15:17.668Z,3.13
2023-05-05T04:20:26.632Z,3.95
2023-05-05T04:22:56.748Z,3.67
2023-05-05T04:25:26.926Z,2.65
2023-05-05T04:27:57.084Z,3.15
2023-05-05T04:30:27.229Z,2.70
2023-05-05T04:32:57.344Z,4.35
2023-05-05T04:35:27.476Z,2.75
2023-05-05T04:37:57.629Z,6.22
2023-05-05T04:40:27.764Z,4.45
2023-05-05T04:42:58.324Z,2.15
2023-05-05T04:45:28.415Z,2.72
2023-05-05T04:47:58.687Z,3.60
2023-05-05T04:50:28.829Z,5.43
2023-05-05T04:52:59.053Z,3.00
2023-05-05T04:55:29.321Z,3.92
2023-05-05T04:57:59.570Z,2.20
2023-05-05T05:00:29.843Z,3.10
2023-05-05T05:03:01.171Z,3.08
2023-05-05T05:05:31.365Z,3.05
2023-05-05T05:08:01.506Z,2.40
2023-05-05T05:10:31.765Z,2.45
2023-05-05T05:13:02.371Z,2.83
2023-05-05T05:15:32.635Z,3.50
2023-05-05T05:18:02.879Z,2.67
2023-05-05T05:20:33.162Z,2.17
2023-05-05T05:23:04.641Z,2.45
2023-05-05T05:25:34.776Z,5.28
2023-05-05T05:28:09.441Z,2.20
2023-05-05T05:30:40.241Z,2.20
2023-05-05T05:33:11.728Z,2.10
2023-05-05T05:35:41.873Z,2.10
2023-05-05T05:38:12.051Z,4.15
2023-05-05T05:40:42.504Z,2.40
2023-05-05T05:43:12.866Z,2.40
2023-05-05T05:45:43.454Z,3.88
2023-05-05T05:48:13.648Z,3.10
2023-05-05T05:50:47.029Z,2.60
2023-05-05T05:53:18.109Z,4.80
2023-05-05T05:55:48.390Z,5.15
2023-05-05T05:58:18.654Z,8.18
2023-05-05T06:00:49.310Z,2.60
2023-05-05T06:03:19.573Z,2.35
2023-05-05T06:05:50.681Z,1.77
2023-05-05T06:08:21.671Z,2.53
2023-05-05T06:10:53.014Z,2.80
2023-05-05T06:13:23.310Z,2.25
2023-05-05T06:15:53.437Z,1.63
2023-05-05T06:18:23.726Z,3.95
2023-05-05T06:20:53.852Z,2.10
2023-05-05T06:23:24.658Z,3.47
2023-05-05T06:25:55.819Z,4.25
2023-05-05T06:28:26.170Z,1.60
2023-05-05T06:30:56.675Z,3.47
2023-05-05T06:33:26.957Z,3.70
2023-05-05T06:35:57.100Z,4.25
2023-05-05T06:38:27.183Z,4.72
2023-05-05T06:40:58.695Z,4.57
2023-05-05T06:43:29.747Z,2.85
2023-05-05T06:45:59.955Z,1.90
2023-05-05T06:48:30.099Z,3.90
2023-05-05T06:51:00.304Z,4.40
2023-05-05T06:53:30.509Z,2.20
2023-05-05T06:56:00.670Z,2.88
2023-05-05T06:58:31.902Z,3.58
2023-05-05T07:01:02.239Z,2.70
2023-05-05T07:03:32.509Z,4.15
2023-05-05T07:06:03.806Z,4.35
2023-05-05T07:08:33.935Z,1.73
2023-05-05T07:11:04.164Z,3.20
2023-05-05T07:13:34.235Z,2.20
2023-05-05T07:16:05.112Z,2.15
2023-05-05T07:18:35.309Z,2.70
2023-05-05T07:21:06.823Z,2.50
2023-05-05T07:23:38.097Z,4.07
2023-05-05T07:26:08.498Z,3.28
2023-05-05T07:28:38.736Z,1.73
2023-05-05T07:31:09.203Z,2.78
2023-05-05T07:33:39.333Z,1.92
2023-05-05T07:36:09.497Z,1.98
2023-05-05T07:38:39.865Z,2.60
2023-05-05T07:41:13.150Z,3.28
2023-05-05T07:43:44.612Z,2.78
2023-05-05T07:46:15.608Z,2.00
2023-05-05T07:48:46.024Z,2.13
2023-05-05T07:51:16.373Z,2.15
2023-05-05T07:53:46.563Z,2.08
2023-05-05T07:56:16.707Z,1.58
2023-05-05T07:58:46.932Z,2.60
2023-05-05T08:01:17.141Z,2.88
2023-05-05T08:03:47.473Z,3.40
2023-05-05T08:06:22.339Z,1.92
2023-05-05T08:08:53.586Z,2.28
2023-05-05T08:11:23.907Z,2.47
2023-05-05T08:13:54.022Z,1.60
2023-05-05T08:16:24.438Z,2.03
2023-05-05T08:18:54.599Z,2.60
2023-05-05T08:21:24.847Z,4.05
2023-05-05T08:23:55.065Z,3.63
2023-05-05T08:26:25.333Z,4.20
2023-05-05T08:29:02.744Z,5.05
2023-05-05T08:31:34.222Z,1.70
2023-05-05T08:34:07.729Z,3.08
2023-05-05T08:36:38.008Z,3.13
2023-05-05T08:39:08.735Z,3.28
2023-05-05T08:41:40.655Z,2.22
2023-05-05T08:44:13.537Z,3.17
2023-05-05T08:46:44.105Z,2.30
2023-05-05T08:49:16.570Z,2.97
2023-05-05T08:51:47.624Z,2.63
2023-05-05T08:54:27.055Z,3.35
2023-05-05T08:57:02.286Z,2.10
2023-05-05T08:59:33.578Z,3.53
2023-05-05T09:02:05.525Z,2.15
2023-05-05T09:04:36.535Z,5.95
2023-05-05T09:07:07.004Z,1.85
2023-05-05T09:09:38.623Z,1.92
2023-05-05T09:12:08.847Z,2.40
2023-05-05T09:17:29.047Z,4.13
2023-05-05T09:20:07.960Z,1.90
2023-05-05T09:22:39.308Z,1.20
2023-05-05T09:25:12.226Z,1.30
2023-05-05T09:27:47.364Z,3.15
2023-05-05T09:30:23.837Z,2.45
2023-05-05T09:35:25.947Z,2.55
2023-05-05T09:37:56.059Z,2.70
2023-05-05T09:40:26.309Z,1.40
2023-05-05T09:43:02.653Z,1.70
2023-05-05T09:45:32.785Z,1.42
2023-05-05T09:48:02.999Z,3.60
2023-05-05T09:50:44.020Z,1.80
2023-05-05T09:53:14.505Z,2.13
2023-05-05T09:56:01.679Z,1.20
2023-05-05T09:58:32.104Z,7.88
2023-05-05T10:01:02.254Z,2.05
2023-05-05T10:03:33.429Z,2.88
2023-05-05T10:06:04.803Z,3.85
2023-05-05T10:08:35.032Z,1.90
2023-05-05T10:11:07.093Z,6.72
2023-05-05T10:13:41.187Z,1.92
2023-05-05T10:16:13.380Z,6.43
2023-05-05T10:18:46.912Z,3.10
2023-05-05T10:21:20.756Z,1.95
2023-05-05T10:24:22.828Z,5.57
2023-05-05T10:26:54.364Z,1.88
2023-05-05T10:29:28.582Z,6.43
2023-05-05T10:32:21.418Z,3.95
2023-05-05T10:35:02.913Z,4.93
2023-05-05T10:37:33.866Z,2.92
2023-05-05T10:40:05.321Z,3.20
2023-05-05T10:42:39.695Z,5.75
2023-05-05T10:45:10.264Z,3.95
2023-05-05T10:47:40.924Z,5.13
2023-05-05T10:50:28.159Z,5.35
2023-05-05T10:53:36.056Z,8.20
2023-05-05T10:56:09.989Z,6.20
2023-05-05T10:58:58.228Z,2.78
2023-05-05T11:01:34.693Z,2.38
2023-05-05T11:04:21.829Z,3.78
2023-05-05T11:07:18.666Z,2.72
2023-05-05T11:10:15.999Z,5.50
2023-05-05T11:12:52.709Z,4.78
2023-05-05T11:15:29.250Z,3.35
2023-05-05T11:18:05.799Z,5.28
2023-05-05T11:20:37.288Z,8.35
2023-05-05T11:23:07.546Z,5.07
2023-05-05T11:25:38.983Z,1.90
2023-05-05T11:28:10.881Z,2.92
2023-05-05T11:30:59.501Z,3.53
2023-05-05T11:33:32.145Z,8.80
2023-05-05T11:36:08.966Z,4.25
2023-05-05T11:38:39.073Z,6.63
2023-05-05T11:41:33.618Z,8.32
2023-05-05T11:44:17.646Z,3.53
2023-05-05T11:46:50.830Z,5.43
2023-05-05T11:49:27.739Z,4.70
2023-05-05T11:51:59.448Z,5.00
2023-05-05T11:54:30.645Z,3.55
2023-05-05T11:57:08.670Z,6.05
2023-05-05T11:59:57.693Z,4.82
2023-05-05T12:02:29.972Z,4.53
2023-05-05T12:05:01.066Z,3.25
2023-05-05T12:07:33.556Z,8.13
2023-05-05T12:10:04.006Z,5.20
2023-05-05T12:12:40.201Z,4.88
2023-05-05T12:17:45.115Z,3.13
2023-05-05T12:20:15.590Z,2.67
2023-05-05T12:22:45.848Z,1.98
2023-05-05T12:25:16.386Z,3.45
2023-05-05T12:27:55.685Z,3.08
2023-05-05T12:30:25.980Z,2.67
2023-05-05T12:33:04.081Z,3.13
2023-05-05T12:35:35.200Z,4.50
2023-05-05T12:38:05.490Z,4.22
2023-05-05T12:41:02.830Z,4.65
2023-05-05T12:43:34.883Z,4.53
2023-05-05T12:46:10.747Z,4.40
2023-05-05T12:48:45.700Z,3.72
2023-05-05T12:51:23.646Z,5.93
2023-05-05T12:56:45.674Z,5.03
2023-05-05T12:59:21.845Z,3.22
2023-05-05T13:01:54.198Z,2.38
2023-05-05T13:04:27.514Z,3.58
2023-05-05T13:07:14.941Z,3.50
2023-05-05T13:09:45.481Z,8.48
2023-05-05T13:12:19.013Z,3.10
2023-05-05T13:14:49.201Z,2.85
2023-05-05T13:17:19.486Z,4.25
2023-05-05T13:19:49.791Z,3.75
2023-05-05T13:22:20.056Z,2.33
2023-05-05T13:24:52.792Z,3.67
2023-05-05T13:27:23.878Z,2.63
2023-05-05T13:29:57.324Z,2.03
2023-05-05T13:32:29.224Z,1.90
2023-05-05T13:34:59.725Z,2.85
2023-05-05T13:37:31.891Z,2.42
2023-05-05T13:40:07.833Z,1.10
2023-05-05T13:42:41.611Z,1.90
2023-05-05T13:45:12.631Z,5.65
2023-05-05T13:47:45.867Z,2.17
2023-05-05T13:50:17.218Z,2.65
2023-05-05T13:52:47.794Z,2.35
2023-05-05T13:55:18.912Z,3.10
2023-05-05T13:57:52.388Z,2.40
2023-05-05T14:00:23.717Z,2.33
2023-05-05T14:02:54.850Z,3.20
2023-05-05T14:05:26.403Z,2.22
2023-05-05T14:07:56.963Z,2.30
2023-05-05T14:10:30.365Z,2.25
2023-05-05T14:13:00.994Z,1.73
2023-05-05T14:15:32.151Z,1.15
2023-05-05T14:18:02.879Z,2.03
2023-05-05T14:20:34.553Z,4.38
2023-05-05T14:23:04.902Z,3.33
2023-05-05T14:25:35.865Z,4.03
2023-05-05T14:28:07.021Z,2.10
2023-05-05T14:30:37.647Z,2.53
2023-05-05T14:33:08.154Z,3.60
2023-05-05T14:35:38.735Z,1.35
2023-05-05T14:38:10.477Z,2.20
2023-05-05T14:40:40.906Z,2.42
2023-05-05T14:43:12.653Z,3.72
2023-05-05T14:45:44.666Z,1.27
2023-05-05T14:48:17.305Z,1.98
2023-05-05T14:50:49.016Z,1.25
2023-05-05T14:53:19.858Z,3.15
2023-05-05T14:55:50.478Z,3.42
2023-05-05T14:58:22.601Z,2.08
2023-05-05T15:00:54.802Z,3.17
2023-05-05T15:03:25.470Z,3.08
2023-05-05T15:05:57.154Z,4.35
2023-05-05T15:08:27.616Z,2.67
2023-05-05T15:10:58.311Z,3.65
2023-05-05T15:13:30.203Z,3.38
2023-05-05T15:16:06.086Z,3.20
2023-05-05T15:21:06.802Z,4.28
2023-05-05T15:23:37.230Z,2.67
2023-05-05T15:26:07.379Z,6.25
2023-05-05T15:28:38.130Z,4.50
2023-05-05T15:31:11.469Z,4.85
2023-05-05T15:33:42.752Z,5.40
2023-05-05T15:36:13.303Z,6.88
2023-05-05T15:38:43.994Z,4.47
2023-05-05T15:41:14.512Z,7.95
2023-05-05T15:43:44.970Z,7.25
2023-05-05T15:46:16.134Z,5.80
2023-05-05T15:48:46.935Z,3.88
2023-05-05T15:51:17.592Z,11.27
2023-05-05T15:53:48.384Z,4.07
2023-05-05T15:56:18.959Z,4.35
2023-05-05T15:58:51.688Z,6.63
2023-05-05T16:01:22.432Z,7.00
2023-05-05T16:03:53.048Z,5.20
2023-05-05T16:06:23.817Z,6.07
2023-05-05T16:08:54.047Z,3.85
2023-05-05T16:11:26.495Z,6.38
2023-05-05T16:13:57.266Z,3.30
2023-05-05T16:16:27.852Z,4.10
2023-05-05T16:18:59.315Z,3.28
2023-05-05T16:21:30.494Z,4.22
2023-05-05T16:24:01.528Z,3.65
2023-05-05T16:26:33.369Z,4.28
2023-05-05T16:29:04.312Z,5.90
2023-05-05T16:31:35.741Z,4.18
2023-05-05T16:34:06.382Z,3.25
2023-05-05T16:36:37.738Z,3.58
2023-05-05T16:39:08.163Z,2.63
2023-05-05T16:41:38.362Z,3.47
2023-05-05T16:44:08.641Z,6.70
2023-05-05T16:46:40.228Z,7.22
2023-05-05T16:49:10.488Z,3.85
2023-05-05T16:51:40.972Z,4.15
2023-05-05T16:54:11.158Z,3.72
2023-05-05T16:56:41.357Z,3.47
2023-05-05T16:59:11.669Z,2.92
2023-05-05T17:01:43.525Z,4.63
2023-05-05T17:04:13.865Z,5.18
2023-05-05T17:06:44.067Z,4.22
2023-05-05T17:09:14.279Z,4.28
2023-05-05T17:11:44.512Z,3.58
2023-05-05T17:14:14.695Z,3.80
2023-05-05T17:16:44.933Z,3.72
2023-05-05T17:19:15.193Z,3.63
2023-05-05T17:21:45.488Z,4.68
2023-05-05T17:24:15.743Z,6.90
2023-05-05T17:26:45.951Z,3.92
2023-05-05T17:29:19.931Z,3.50
2023-05-05T17:31:50.864Z,4.75
2023-05-05T17:34:21.170Z,3.70
2023-05-05T17:36:51.281Z,4.70
2023-05-05T17:39:21.376Z,3.35
2023-05-05T17:41:51.870Z,3.88
2023-05-05T17:44:22.114Z,4.03
2023-05-05T17:46:52.336Z,4.30
2023-05-05T17:49:22.783Z,6.78
2023-05-05T17:51:52.879Z,7.05
2023-05-05T17:54:23.047Z,4.25
2023-05-05T17:56:53.404Z,4.72
2023-05-05T17:59:23.682Z,4.68
2023-05-05T18:01:53.749Z,5.00
2023-05-05T18:04:24.121Z,3.10
2023-05-05T18:06:57.223Z,2.20
2023-05-05T18:09:27.556Z,3.65
2023-05-05T18:11:57.844Z,5.15
2023-05-05T18:14:28.042Z,2.70
2023-05-05T18:16:58.201Z,4.10
2023-05-05T18:19:28.467Z,5.57
2023-05-05T18:21:59.204Z,5.22
2023-05-05T18:24:29.649Z,5.93
2023-05-05T18:26:59.828Z,3.22
2023-05-05T18:29:29.947Z,6.18
2023-05-05T18:32:00.253Z,3.33
2023-05-05T18:34:30.517Z,3.25
2023-05-05T18:37:00.730Z,3.28
2023-05-05T18:39:30.930Z,5.38
2023-05-05T18:42:04.044Z,3.55
2023-05-05T18:44:35.123Z,4.18
2023-05-05T18:47:05.338Z,4.45
2023-05-05T18:49:35.529Z,4.38
2023-05-05T18:52:05.673Z,5.95
2023-05-05T18:54:37.821Z,5.85
2023-05-05T18:57:08.280Z,4.22
2023-05-05T18:59:38.495Z,6.18
2023-05-05T19:02:08.775Z,5.97
2023-05-05T19:04:41.478Z,4.70
2023-05-05T19:07:18.410Z,4.47
2023-05-05T19:09:54.157Z,5.82
2023-05-05T19:12:24.296Z,3.90
2023-05-05T19:14:54.500Z,4.40
2023-05-05T19:17:24.802Z,4.25
2023-05-05T19:19:54.985Z,4.75
2023-05-05T19:22:25.616Z,4.13
2023-05-05T19:24:55.833Z,5.97
2023-05-05T19:27:26.078Z,8.25
2023-05-05T19:29:56.298Z,5.85
2023-05-05T19:32:26.944Z,8.15
2023-05-05T19:34:57.081Z,6.85
2023-05-05T19:37:27.638Z,9.68
2023-05-05T19:39:57.691Z,15.90
2023-05-05T19:42:28.767Z,12.20
2023-05-05T19:44:58.944Z,13.57
2023-05-05T19:47:29.081Z,10.90
2023-05-05T19:49:59.339Z,7.00
2023-05-05T19:52:29.491Z,10.20
2023-05-05T19:54:59.653Z,9.15
2023-05-05T19:57:32.670Z,8.75
2023-05-05T20:00:04.048Z,11.60
2023-05-05T20:02:43.260Z,7.40
2023-05-05T20:05:20.237Z,11.25
2023-05-05T20:07:53.665Z,9.97
2023-05-05T20:10:31.045Z,7.50
2023-05-05T20:13:04.918Z,9.77
2023-05-05T20:15:37.960Z,11.05
2023-05-05T20:18:13.537Z,8.45
2023-05-05T20:20:43.737Z,7.35
2023-05-05T20:23:13.899Z,8.70
2023-05-05T20:25:44.201Z,7.85
2023-05-05T20:28:14.317Z,10.30
2023-05-05T20:30:44.564Z,8.45
2023-05-05T20:33:14.669Z,9.45
2023-05-05T20:35:44.795Z,10.88
2023-05-05T20:38:15.087Z,7.10
2023-05-05T20:40:45.242Z,9.40
2023-05-05T20:43:15.397Z,6.65
2023-05-05T20:45:45.554Z,11.68
2023-05-05T20:48:15.744Z,7.60
2023-05-05T20:50:46.092Z,7.45
2023-05-05T20:53:21.014Z,8.07
2023-05-05T20:55:51.418Z,9.38
2023-05-05T20:58:21.563Z,6.55
2023-05-05T21:00:51.769Z,5.32
2023-05-05T21:03:22.003Z,6.82
2023-05-05T21:05:52.195Z,7.22
2023-05-05T21:08:22.700Z,10.05
2023-05-05T21:10:52.815Z,5.15
2023-05-05T21:13:23.332Z,7.28
2023-05-05T21:15:53.510Z,6.30
2023-05-05T21:18:25.911Z,5.78
2023-05-05T21:21:02.785Z,4.90
2023-05-05T21:23:36.334Z,6.05
2023-05-05T21:26:10.802Z,4.05
2023-05-05T21:28:49.606Z,3.63
2023-05-05T21:31:24.225Z,4.03
2023-05-05T21:33:58.187Z,4.47
2023-05-05T21:36:34.055Z,3.53
2023-05-05T21:39:11.540Z,4.50
2023-05-05T21:41:47.509Z,4.15
2023-05-05T21:44:20.489Z,3.47
2023-05-05T21:46:55.665Z,4.22
2023-05-05T21:49:25.864Z,2.67
2023-05-05T21:51:59.018Z,6.28
2023-05-05T21:54:30.341Z,3.50
2023-05-05T21:57:03.887Z,2.15
2023-05-05T21:59:34.687Z,3.15
2023-05-05T22:02:04.996Z,3.42
2023-05-05T22:04:35.141Z,3.42
2023-05-05T22:07:05.318Z,8.48
2023-05-05T22:09:35.716Z,2.70
2023-05-05T22:12:06.060Z,3.25
2023-05-05T22:14:36.191Z,2.33
2023-05-05T22:17:06.434Z,2.80
2023-05-05T22:19:36.511Z,2.72
2023-05-05T22:22:07.170Z,3.60
2023-05-05T22:24:37.275Z,3.20
2023-05-05T22:27:07.385Z,3.55
2023-05-05T22:29:39.054Z,3.72
2023-05-05T22:32:09.118Z,3.80
2023-05-05T22:34:39.340Z,4.70
2023-05-05T22:37:09.656Z,4.53
2023-05-05T22:39:39.846Z,3.13
2023-05-05T22:42:10.140Z,2.67
2023-05-05T22:44:40.244Z,5.03
2023-05-05T22:47:10.611Z,3.55
2023-05-05T22:49:41.005Z,3.70
2023-05-05T22:52:11.287Z,4.10
2023-05-05T22:54:41.526Z,4.82
2023-05-05T22:57:12.134Z,4.43
2023-05-05T22:59:42.186Z,5.28
2023-05-05T23:02:12.396Z,5.40
2023-05-05T23:04:45.026Z,4.50
2023-05-05T23:07:15.708Z,4.07
2023-05-05T23:09:47.055Z,4.03
2023-05-05T23:12:17.754Z,4.97
2023-05-05T23:14:48.624Z,3.90
2023-05-05T23:17:18.782Z,4.88
2023-05-05T23:19:49.513Z,5.97
2023-05-05T23:22:19.613Z,5.88
2023-05-05T23:24:49.747Z,6.45
2023-05-05T23:27:19.946Z,4.40
2023-05-05T23:29:50.262Z,3.90
2023-05-05T23:32:20.751Z,6.10
2023-05-05T23:34:50.888Z,4.55
2023-05-05T23:37:21.831Z,10.10
2023-05-05T23:39:52.161Z,7.57
2023-05-05T23:42:22.389Z,7.07
2023-05-05T23:44:52.458Z,5.13
2023-05-05T23:47:22.670Z,5.35
2023-05-05T23:49:52.789Z,6.13
2023-05-05T23:52:22.908Z,4.95
2023-05-05T23:54:53.040Z,5.90
2023-05-05T23:57:23.152Z,6.40
2023-05-05T23:59:53.257Z,7.70
